createdAt,value
2019-04-26T00:02:10.280Z,9.20
2019-04-26T00:05:14.391Z,9.20
2019-04-26T00:08:17.923Z,9.20
2019-04-26T00:11:47.845Z,9.20
2019-04-26T00:15:10.101Z,9.30
2019-04-26T00:18:14.649Z,9.30
2019-04-26T00:21:18.245Z,9.30
2019-04-26T00:24:21.449Z,9.30
2019-04-26T00:27:24.036Z,9.30
2019-04-26T00:30:26.512Z,9.30
2019-04-26T00:33:29.111Z,9.30
2019-04-26T00:36:31.482Z,9.30
2019-04-26T00:39:33.866Z,9.30
2019-04-26T00:42:36.514Z,9.30
2019-04-26T00:45:39.158Z,9.20
2019-04-26T00:48:43.371Z,9.30
2019-04-26T00:51:46.568Z,9.30
2019-04-26T00:54:49.016Z,9.30
2019-04-26T00:57:51.783Z,9.40
2019-04-26T01:00:54.207Z,9.40
2019-04-26T01:03:56.662Z,9.40
2019-04-26T01:06:59.475Z,9.40
2019-04-26T01:10:01.819Z,9.40
2019-04-26T01:13:04.178Z,9.40
2019-04-26T01:16:06.609Z,9.40
2019-04-26T01:19:10.655Z,9.40
2019-04-26T01:22:19.297Z,9.30
2019-04-26T01:25:37.388Z,9.40
2019-04-26T01:28:54.267Z,9.30
2019-04-26T01:32:05.782Z,9.30
2019-04-26T01:35:08.380Z,9.30
2019-04-26T01:38:12.418Z,9.30
2019-04-26T01:41:24.083Z,9.30
2019-04-26T01:44:39.151Z,9.20
2019-04-26T01:47:41.878Z,9.20
2019-04-26T01:50:44.297Z,9.20
2019-04-26T01:53:50.786Z,9.20
2019-04-26T01:56:57.507Z,9.20
2019-04-26T02:00:29.550Z,9.20
2019-04-26T02:03:32.079Z,9.20
2019-04-26T02:06:35.317Z,9.20
2019-04-26T02:09:37.780Z,9.10
2019-04-26T02:12:44.031Z,9.10
2019-04-26T02:15:46.432Z,9.00
2019-04-26T02:18:48.850Z,8.90
2019-04-26T02:21:57.520Z,8.90
2019-04-26T02:25:00.029Z,8.90
2019-04-26T02:28:02.344Z,8.80
2019-04-26T02:31:04.783Z,8.80
2019-04-26T02:34:08.494Z,8.70
2019-04-26T02:37:14.115Z,8.70
2019-04-26T02:40:17.935Z,8.60
2019-04-26T02:43:23.894Z,8.50
2019-04-26T02:46:58.976Z,8.40
2019-04-26T02:50:06.104Z,8.30
2019-04-26T02:53:31.011Z,8.20
2019-04-26T02:56:40.093Z,8.10
2019-04-26T02:59:45.281Z,8.00
2019-04-26T03:03:00.252Z,8.00
2019-04-26T03:06:06.038Z,7.80
2019-04-26T03:09:08.466Z,7.80
2019-04-26T03:12:14.400Z,7.90
2019-04-26T03:15:30.353Z,7.90
2019-04-26T03:19:01.171Z,7.90
2019-04-26T03:22:51.878Z,8.00
2019-04-26T03:26:10.409Z,8.10
2019-04-26T03:29:44.783Z,8.20
2019-04-26T03:32:59.574Z,8.20
2019-04-26T03:36:30.149Z,8.30
2019-04-26T03:40:09.307Z,8.20
2019-04-26T03:43:30.428Z,8.20
2019-04-26T03:46:48.558Z,8.10
2019-04-26T03:50:16.338Z,8.10
2019-04-26T03:53:54.451Z,8.00
2019-04-26T03:57:25.800Z,8.00
2019-04-26T04:00:51.569Z,8.00
2019-04-26T04:04:02.494Z,7.90
2019-04-26T04:07:08.726Z,7.70
2019-04-26T04:10:18.337Z,7.70
2019-04-26T04:13:49.204Z,7.60
2019-04-26T04:17:17.797Z,7.50
2019-04-26T04:21:17.194Z,7.50
2019-04-26T04:24:46.979Z,7.40
2019-04-26T04:27:59.136Z,7.40
2019-04-26T04:31:13.801Z,7.30
2019-04-26T04:34:25.841Z,7.40
2019-04-26T04:37:32.044Z,7.40
2019-04-26T04:41:20.798Z,7.50
2019-04-26T04:45:26.279Z,7.60
2019-04-26T04:49:06.927Z,7.60
2019-04-26T04:52:48.217Z,7.70
2019-04-26T04:56:09.003Z,7.70
2019-04-26T04:59:18.579Z,7.70
2019-04-26T05:02:56.167Z,7.70
2019-04-26T05:06:29.289Z,7.60
2019-04-26T05:09:33.689Z,7.60
2019-04-26T05:12:50.363Z,7.50
2019-04-26T05:16:33.071Z,7.50
2019-04-26T05:20:23.936Z,7.50
2019-04-26T05:23:55.880Z,7.40
2019-04-26T05:27:39.040Z,7.40
2019-04-26T05:31:07.625Z,7.40
2019-04-26T05:34:34.158Z,7.40
2019-04-26T05:38:18.378Z,7.40
2019-04-26T05:41:37.384Z,7.50
2019-04-26T05:45:28.865Z,7.70
2019-04-26T05:49:03.857Z,7.90
2019-04-26T05:52:43.177Z,8.00
2019-04-26T05:56:43.841Z,8.20
2019-04-26T06:00:24.274Z,8.40
2019-04-26T06:04:09.964Z,8.60
2019-04-26T06:07:28.814Z,8.70
2019-04-26T06:10:54.155Z,8.70
2019-04-26T06:14:32.082Z,8.80
2019-04-26T06:18:08.222Z,8.80
2019-04-26T06:21:32.630Z,8.90
2019-04-26T06:25:35.090Z,8.90
2019-04-26T06:28:56.832Z,9.00
2019-04-26T06:32:11.733Z,9.00
2019-04-26T06:35:20.111Z,9.10
2019-04-26T06:39:39.766Z,9.20
2019-04-26T06:43:35.040Z,9.30
2019-04-26T06:47:04.884Z,9.40
2019-04-26T06:50:20.463Z,9.50
2019-04-26T06:54:06.405Z,9.70
2019-04-26T06:57:59.393Z,10.00
2019-04-26T07:01:13.815Z,10.30
2019-04-26T07:04:44.213Z,10.40
2019-04-26T07:08:40.786Z,10.40
2019-04-26T07:12:24.262Z,10.60
2019-04-26T07:15:44.708Z,10.40
2019-04-26T07:19:23.969Z,10.60
2019-04-26T07:22:51.427Z,10.50
2019-04-26T07:26:24.596Z,10.40
2019-04-26T07:29:46.034Z,10.40
2019-04-26T07:33:28.958Z,10.50
2019-04-26T07:37:08.880Z,10.50
2019-04-26T07:40:51.846Z,10.70
2019-04-26T07:44:26.739Z,11.10
2019-04-26T07:48:32.137Z,11.30
2019-04-26T07:52:19.160Z,11.10
2019-04-26T07:55:47.636Z,11.10
2019-04-26T07:59:26.572Z,11.10
2019-04-26T08:02:59.635Z,11.10
2019-04-26T08:06:52.792Z,11.10
2019-04-26T08:10:07.899Z,11.10
2019-04-26T08:13:15.272Z,11.40
2019-04-26T08:16:42.787Z,11.60
2019-04-26T08:19:57.774Z,11.80
2019-04-26T08:23:09.083Z,12.10
2019-04-26T08:26:13.805Z,11.90
2019-04-26T08:29:20.013Z,12.10
2019-04-26T08:32:28.204Z,12.40
2019-04-26T08:35:34.046Z,12.70
2019-04-26T08:38:37.828Z,13.10
2019-04-26T08:41:42.141Z,13.30
2019-04-26T08:44:52.147Z,13.30
2019-04-26T08:48:17.623Z,13.70
2019-04-26T08:51:22.059Z,13.80
2019-04-26T08:54:28.693Z,14.00
2019-04-26T08:57:35.117Z,14.00
2019-04-26T09:01:13.029Z,14.10
2019-04-26T09:04:23.799Z,14.30
2019-04-26T09:07:32.800Z,14.80
2019-04-26T09:10:39.245Z,14.10
2019-04-26T09:13:46.711Z,14.60
2019-04-26T09:16:50.541Z,15.30
2019-04-26T09:19:53.268Z,15.50
2019-04-26T09:23:13.965Z,15.40
2019-04-26T09:26:24.797Z,15.80
2019-04-26T09:29:41.851Z,16.20
2019-04-26T09:33:03.109Z,15.50
2019-04-26T09:36:06.278Z,14.90
2019-04-26T09:39:28.427Z,14.80
2019-04-26T09:42:46.649Z,14.60
2019-04-26T09:46:11.230Z,15.30
2019-04-26T09:49:48.287Z,15.60
2019-04-26T09:52:51.030Z,16.40
2019-04-26T09:55:53.497Z,16.90
2019-04-26T09:58:55.377Z,16.80
2019-04-26T10:01:59.472Z,16.60
2019-04-26T10:05:02.124Z,16.50
2019-04-26T10:08:04.047Z,16.20
2019-04-26T10:11:09.592Z,15.80
2019-04-26T10:14:54.314Z,15.50
2019-04-26T10:17:56.845Z,15.50
2019-04-26T10:20:58.841Z,15.20
2019-04-26T10:24:01.302Z,15.90
2019-04-26T10:27:04.699Z,16.90
2019-04-26T10:30:09.668Z,16.10
2019-04-26T10:33:12.307Z,16.30
2019-04-26T10:36:14.180Z,17.30
2019-04-26T10:39:18.445Z,17.40
2019-04-26T10:42:21.159Z,17.40
2019-04-26T10:45:24.426Z,16.80
2019-04-26T10:48:26.863Z,16.30
2019-04-26T10:51:38.627Z,16.40
2019-04-26T10:54:41.392Z,16.90
2019-04-26T10:57:45.758Z,17.80
2019-04-26T11:00:52.664Z,17.50
2019-04-26T11:03:55.058Z,16.70
2019-04-26T11:06:58.092Z,16.90
2019-04-26T11:10:02.929Z,16.80
2019-04-26T11:13:05.752Z,17.50
2019-04-26T11:16:08.941Z,17.50
2019-04-26T11:19:11.500Z,18.30
2019-04-26T11:22:13.453Z,18.40
2019-04-26T11:25:15.899Z,17.80
2019-04-26T11:28:21.428Z,18.60
2019-04-26T11:31:23.325Z,19.20
2019-04-26T11:34:26.265Z,18.80
2019-04-26T11:37:28.176Z,18.90
2019-04-26T11:40:30.653Z,19.20
2019-04-26T11:43:32.491Z,19.00
2019-04-26T11:46:44.743Z,19.40
2019-04-26T11:49:41.600Z,18.60
2019-04-26T11:52:43.832Z,18.90
2019-04-26T11:55:45.708Z,18.30
2019-04-26T11:58:48.508Z,18.40
2019-04-26T12:01:50.957Z,19.90
2019-04-26T12:05:10.320Z,19.50
2019-04-26T12:08:15.322Z,17.80
2019-04-26T12:11:19.133Z,18.00
2019-04-26T12:14:22.065Z,19.40
2019-04-26T12:17:26.873Z,18.50
2019-04-26T12:20:31.197Z,17.40
2019-04-26T12:23:33.661Z,18.00
2019-04-26T12:26:42.916Z,18.10
2019-04-26T12:29:39.801Z,17.50
2019-04-26T12:32:41.751Z,17.50
2019-04-26T12:35:44.206Z,18.40
2019-04-26T12:38:46.094Z,18.70
2019-04-26T12:41:48.499Z,18.10
2019-04-26T12:45:16.708Z,18.10
2019-04-26T12:48:21.411Z,17.60
2019-04-26T12:51:23.864Z,17.20
2019-04-26T12:54:25.782Z,16.80
2019-04-26T12:57:28.185Z,16.50
2019-04-26T13:00:32.956Z,16.30
2019-04-26T13:03:34.858Z,16.20
2019-04-26T13:06:56.974Z,16.20
2019-04-26T13:10:14.411Z,16.30
2019-04-26T13:13:36.321Z,16.70
2019-04-26T13:16:48.800Z,17.30
2019-04-26T13:19:53.810Z,17.10
2019-04-26T13:22:56.003Z,16.80
2019-04-26T13:25:59.810Z,16.60
2019-04-26T13:29:02.119Z,16.40
2019-04-26T13:32:04.091Z,16.40
2019-04-26T13:35:07.282Z,16.50
2019-04-26T13:38:10.879Z,16.90
2019-04-26T13:41:12.761Z,17.20
2019-04-26T13:44:17.762Z,17.30
2019-04-26T13:47:55.124Z,19.20
2019-04-26T13:51:05.626Z,19.90
2019-04-26T13:54:07.051Z,19.40
2019-04-26T13:57:10.186Z,18.40
2019-04-26T14:00:17.327Z,19.40
2019-04-26T14:03:19.781Z,20.80
2019-04-26T14:06:21.899Z,20.70
2019-04-26T14:09:24.395Z,19.10
2019-04-26T14:12:26.890Z,18.80
2019-04-26T14:15:29.580Z,19.00
2019-04-26T14:18:34.673Z,18.20
2019-04-26T14:21:36.332Z,18.00
2019-04-26T14:24:45.583Z,18.20
2019-04-26T14:27:51.583Z,18.10
2019-04-26T14:30:54.229Z,18.10
2019-04-26T14:33:56.817Z,19.40
2019-04-26T14:37:06.474Z,20.50
2019-04-26T14:40:16.638Z,20.40
2019-04-26T14:43:08.610Z,20.10
2019-04-26T14:46:14.623Z,20.50
2019-04-26T14:49:19.188Z,21.80
2019-04-26T14:52:24.069Z,21.70
2019-04-26T14:55:25.028Z,21.60
2019-04-26T14:58:30.306Z,21.10
2019-04-26T15:01:54.517Z,20.20
2019-04-26T15:05:19.293Z,20.40
2019-04-26T15:08:22.617Z,20.10
2019-04-26T15:11:25.182Z,20.20
2019-04-26T15:14:27.716Z,20.20
2019-04-26T15:17:30.185Z,19.80
2019-04-26T15:20:32.717Z,18.70
2019-04-26T15:23:35.169Z,19.40
2019-04-26T15:26:37.055Z,18.90
2019-04-26T15:29:39.445Z,18.70
2019-04-26T15:32:42.655Z,18.60
2019-04-26T15:35:46.162Z,19.10
2019-04-26T15:38:49.377Z,20.50
2019-04-26T15:42:14.414Z,20.90
2019-04-26T15:45:42.437Z,20.50
2019-04-26T15:48:54.603Z,18.80
2019-04-26T15:51:56.411Z,18.60
2019-04-26T15:55:03.502Z,18.30
2019-04-26T15:58:08.242Z,17.80
2019-04-26T16:01:10.910Z,18.10
2019-04-26T16:04:13.296Z,19.20
2019-04-26T16:07:26.998Z,20.10
2019-04-26T16:10:25.510Z,20.30
2019-04-26T16:13:25.388Z,19.70
2019-04-26T16:16:29.165Z,18.60
2019-04-26T16:19:32.110Z,19.20
2019-04-26T16:22:33.970Z,19.30
2019-04-26T16:25:38.343Z,18.60
2019-04-26T16:29:18.162Z,19.20
2019-04-26T16:32:43.256Z,19.90
2019-04-26T16:35:45.922Z,20.10
2019-04-26T16:41:52.468Z,19.30
2019-04-26T16:44:55.338Z,18.40
2019-04-26T16:47:58.003Z,18.90
2019-04-26T16:51:01.097Z,19.30
2019-04-26T16:54:08.706Z,19.40
2019-04-26T17:00:16.317Z,19.30
2019-04-26T17:03:17.880Z,18.50
2019-04-26T17:06:19.876Z,18.10
2019-04-26T17:09:23.614Z,18.20
2019-04-26T17:09:37.221Z,20.00
2019-04-26T17:09:50.249Z,19.60
2019-04-26T17:12:26.319Z,18.60
2019-04-26T17:15:28.290Z,18.60
2019-04-26T17:18:32.297Z,17.70
2019-04-26T17:21:43.062Z,17.20
2019-04-26T17:25:26.623Z,17.00
2019-04-26T17:28:27.428Z,16.80
2019-04-26T17:31:29.379Z,16.70
2019-04-26T17:34:33.639Z,16.60
2019-04-26T17:37:36.224Z,16.40
2019-04-26T17:40:38.201Z,16.30
2019-04-26T17:43:46.940Z,16.30
2019-04-26T17:46:48.946Z,16.50
2019-04-26T17:49:52.364Z,17.20
2019-04-26T17:52:54.821Z,17.70
2019-04-26T17:55:56.843Z,18.00
2019-04-26T17:59:03.201Z,18.10
2019-04-26T18:02:04.230Z,17.90
2019-04-26T18:05:07.095Z,17.70
2019-04-26T18:08:32.795Z,17.50
2019-04-26T18:11:19.767Z,17.30
2019-04-26T18:14:21.548Z,17.20
2019-04-26T18:17:53.082Z,17.00
2019-04-26T18:21:19.167Z,16.60
2019-04-26T18:24:17.533Z,16.40
2019-04-26T18:27:19.767Z,16.20
2019-04-26T18:30:23.636Z,16.00
2019-04-26T18:33:26.225Z,15.90
2019-04-26T18:36:31.910Z,15.60
2019-04-26T18:39:33.182Z,15.40
2019-04-26T18:42:37.601Z,15.10
2019-04-26T18:45:44.462Z,15.00
2019-04-26T18:48:49.007Z,14.90
2019-04-26T18:51:51.783Z,14.80
2019-04-26T18:55:05.518Z,14.70
2019-04-26T18:58:06.409Z,14.40
2019-04-26T19:01:11.022Z,14.20
2019-04-26T19:04:15.458Z,14.00
2019-04-26T19:07:17.760Z,13.90
2019-04-26T19:10:21.600Z,13.80
2019-04-26T19:13:43.893Z,13.90
2019-04-26T19:16:59.066Z,13.70
2019-04-26T19:20:29.700Z,13.50
2019-04-26T19:23:32.342Z,13.40
2019-04-26T19:26:35.169Z,13.20
2019-04-26T19:29:37.733Z,13.00
2019-04-26T19:32:40.617Z,12.80
2019-04-26T19:35:44.010Z,12.70
2019-04-26T19:38:49.820Z,12.60
2019-04-26T19:41:57.513Z,12.40
2019-04-26T19:45:11.733Z,12.30
2019-04-26T19:48:19.183Z,12.10
2019-04-26T19:51:43.595Z,11.90
2019-04-26T19:54:54.069Z,11.80
2019-04-26T19:58:02.467Z,11.60
2019-04-26T20:01:04.979Z,11.50
2019-04-26T20:04:07.483Z,11.40
2019-04-26T20:07:09.993Z,11.40
2019-04-26T20:10:12.901Z,11.50
2019-04-26T20:13:16.574Z,11.60
2019-04-26T20:16:22.248Z,11.70
2019-04-26T20:19:34.385Z,11.70
2019-04-26T20:22:30.579Z,11.70
2019-04-26T20:25:33.350Z,11.70
2019-04-26T20:28:37.438Z,11.60
2019-04-26T20:32:05.755Z,11.60
2019-04-26T20:35:26.392Z,11.60
2019-04-26T20:38:24.467Z,11.60
2019-04-26T20:41:27.228Z,11.60
2019-04-26T20:44:39.689Z,11.50
2019-04-26T20:47:34.048Z,11.40
2019-04-26T20:50:36.885Z,11.30
2019-04-26T20:53:41.282Z,11.10
2019-04-26T20:56:46.163Z,11.00
2019-04-26T20:59:52.057Z,10.80
2019-04-26T21:02:54.198Z,10.70
2019-04-26T21:05:59.290Z,10.60
2019-04-26T21:09:03.367Z,10.50
2019-04-26T21:12:07.916Z,10.50
2019-04-26T21:15:11.483Z,10.30
2019-04-26T21:18:14.046Z,10.30
2019-04-26T21:21:16.600Z,10.20
2019-04-26T21:24:20.149Z,10.20
2019-04-26T21:27:48.827Z,10.10
2019-04-26T21:31:14.547Z,10.10
2019-04-26T21:34:21.493Z,10.00
2019-04-26T21:37:34.153Z,9.90
2019-04-26T21:40:51.030Z,9.90
2019-04-26T21:43:53.506Z,9.80
2019-04-26T21:46:58.878Z,9.80
2019-04-26T21:50:00.782Z,9.60
2019-04-26T21:53:06.760Z,9.40
2019-04-26T21:56:11.561Z,9.30
2019-04-26T21:59:13.775Z,9.20
2019-04-26T22:02:16.836Z,9.20
2019-04-26T22:05:19.317Z,9.10
2019-04-26T22:08:26.058Z,9.10
2019-04-26T22:11:28.463Z,9.10
2019-04-26T22:14:34.164Z,9.20
2019-04-26T22:17:40.593Z,9.30
2019-04-26T22:20:50.936Z,9.40
2019-04-26T22:23:58.887Z,9.30
2019-04-26T22:27:01.324Z,9.30
2019-04-26T22:30:07.419Z,9.30
2019-04-26T22:33:09.899Z,9.40
2019-04-26T22:36:13.167Z,9.40
2019-04-26T22:39:17.058Z,9.50
2019-04-26T22:42:19.474Z,9.40
2019-04-26T22:45:33.553Z,9.40
2019-04-26T22:48:37.161Z,9.40
2019-04-26T22:51:39.909Z,9.40
2019-04-26T22:54:46.418Z,9.50
2019-04-26T22:57:49.680Z,9.50
2019-04-26T23:00:51.307Z,9.50
2019-04-26T23:03:53.925Z,9.50
2019-04-26T23:06:56.601Z,9.50
2019-04-26T23:09:59.123Z,9.50
2019-04-26T23:13:14.990Z,9.60
2019-04-26T23:16:40.456Z,9.70
2019-04-26T23:19:49.392Z,9.60
2019-04-26T23:22:52.932Z,9.60
2019-04-26T23:25:55.428Z,9.50
2019-04-26T23:28:57.874Z,9.40
2019-04-26T23:32:00.359Z,9.30
2019-04-26T23:35:05.963Z,9.20
2019-04-26T23:38:07.254Z,9.20
2019-04-26T23:41:09.710Z,9.10
2019-04-26T23:44:13.229Z,9.10
2019-04-26T23:47:23.039Z,9.20
2019-04-26T23:50:25.559Z,9.10
2019-04-26T23:53:27.059Z,9.10
2019-04-26T23:56:29.486Z,9.00
2019-04-26T23:59:33.634Z,9.00
